Wetterdaten: Freitag, 19.09.2014
Datum Zeit Temp. A. Feuchte A. Luftdruck Regen Wind Richtung Richtung Sonnenschein ET UV Solar Taupunkt Windchill Windben Empfang
19.09.2014 00:00 12,8 C 83 % 1012,4 hPa 0,0 l/m 0,0 km/h (0 Bft) S 174 0 min 0,000 mm 0,0 UV-I 0 W/m 10,0 C 12,8 C 0,0 km/h (0 Bft) 0,00 %
19.09.2014 00:15 12,7 C 83 % 1012,5 hPa 0,0 l/m 0,0 km/h (0 Bft) S-SO 153 0 min 0,000 mm 0,0 UV-I 0 W/m 9,9 C 12,7 C 0,0 km/h (0 Bft) 0,00 %
19.09.2014 00:30 12,9 C 83 % 1012,3 hPa 0,0 l/m 0,0 km/h (0 Bft) S 190 0 min 0,000 mm 0,0 UV-I 0 W/m 10,1 C 12,9 C 0,0 km/h (0 Bft) 0,00 %
19.09.2014 00:45 13,0 C 82 % 1012,3 hPa 0,0 l/m 0,0 km/h (0 Bft) S-SW 208 0 min 0,000 mm 0,0 UV-I 0 W/m 10,0 C 13,0 C 0,0 km/h (0 Bft) 0,00 %
19.09.2014 01:00 12,6 C 84 % 1012,5 hPa 0,0 l/m 0,0 km/h (0 Bft) S-SW 208 0 min 0,000 mm 0,0 UV-I 0 W/m 10,0 C 12,6 C 0,0 km/h (0 Bft) 0,00 %
19.09.2014 01:15 12,0 C 86 % 1012,7 hPa 0,0 l/m 0,0 km/h (0 Bft) S-SW 192 0 min 0,000 mm 0,0 UV-I 0 W/m 9,7 C 12,0 C 0,0 km/h (0 Bft) 0,00 %
19.09.2014 01:30 11,8 C 87 % 1012,6 hPa 0,0 l/m 0,0 km/h (0 Bft) S-SW 207 0 min 0,000 mm 0,0 UV-I 0 W/m 9,7 C 11,8 C 0,0 km/h (0 Bft) 0,00 %
19.09.2014 01:45 11,6 C 88 % 1012,7 hPa 0,0 l/m 0,0 km/h (0 Bft) S-SW 207 0 min 0,000 mm 0,0 UV-I 0 W/m 9,7 C 11,6 C 0,0 km/h (0 Bft) 0,00 %
19.09.2014 02:00 11,4 C 89 % 1012,8 hPa 0,0 l/m 0,0 km/h (0 Bft) S-SW 205 0 min 0,000 mm 0,0 UV-I 0 W/m 9,7 C 11,4 C 0,0 km/h (0 Bft) 0,00 %
19.09.2014 02:15 11,2 C 89 % 1013,2 hPa 0,0 l/m 0,0 km/h (0 Bft) W-NW 290 0 min 0,000 mm 0,0 UV-I 0 W/m 9,5 C 11,2 C 0,0 km/h (0 Bft) 0,00 %
19.09.2014 02:30 11,0 C 90 % 1013,0 hPa 0,0 l/m 0,0 km/h (0 Bft) SW 230 0 min 0,000 mm 0,0 UV-I 0 W/m 9,4 C 11,0 C 0,0 km/h (0 Bft) 0,00 %
19.09.2014 02:45 11,1 C 90 % 1012,8 hPa 0,0 l/m 0,0 km/h (0 Bft) S-SO 168 0 min 0,000 mm 0,0 UV-I 0 W/m 9,5 C 11,1 C 0,0 km/h (0 Bft) 0,00 %
19.09.2014 03:00 11,6 C 88 % 1012,7 hPa 0,0 l/m 0,0 km/h (0 Bft) SW 223 0 min 0,000 mm 0,0 UV-I 0 W/m 9,7 C 11,6 C 0,0 km/h (0 Bft) 0,00 %
19.09.2014 03:15 11,3 C 89 % 1012,8 hPa 0,0 l/m 0,0 km/h (0 Bft) SW 223 0 min 0,000 mm 0,0 UV-I 0 W/m 9,6 C 11,3 C 0,0 km/h (0 Bft) 0,00 %
19.09.2014 03:30 11,0 C 90 % 1012,7 hPa 0,0 l/m 0,0 km/h (0 Bft) SW 223 0 min 0,000 mm 0,0 UV-I 0 W/m 9,4 C 11,0 C 0,0 km/h (0 Bft) 0,00 %
19.09.2014 03:45 10,8 C 90 % 1012,8 hPa 0,0 l/m 0,0 km/h (0 Bft) SW 223 0 min 0,000 mm 0,0 UV-I 0 W/m 9,2 C 10,8 C 0,0 km/h (0 Bft) 0,00 %
19.09.2014 04:00 10,7 C 90 % 1012,8 hPa 0,0 l/m 0,0 km/h (0 Bft) SW 223 0 min 0,000 mm 0,0 UV-I 0 W/m 9,1 C 10,7 C 0,0 km/h (0 Bft) 0,00 %
19.09.2014 04:15 10,8 C 91 % 1012,6 hPa 0,0 l/m 0,0 km/h (0 Bft) SW 235 0 min 0,000 mm 0,0 UV-I 0 W/m 9,4 C 10,8 C 0,0 km/h (0 Bft) 0,00 %
19.09.2014 04:30 10,9 C 91 % 1012,9 hPa 0,0 l/m 0,0 km/h (0 Bft) SW 222 0 min 0,000 mm 0,0 UV-I 0 W/m 9,5 C 10,9 C 0,0 km/h (0 Bft) 0,00 %
19.09.2014 04:45 11,2 C 91 % 1012,8 hPa 0,0 l/m 0,0 km/h (0 Bft) SO 137 0 min 0,000 mm 0,0 UV-I 0 W/m 9,8 C 11,2 C 0,0 km/h (0 Bft) 0,00 %
19.09.2014 05:00 11,2 C 91 % 1012,9 hPa 0,0 l/m 0,0 km/h (0 Bft) O-SO 118 0 min 0,000 mm 0,0 UV-I 0 W/m 9,8 C 11,2 C 0,0 km/h (0 Bft) 0,00 %
19.09.2014 05:15 11,2 C 90 % 1013,0 hPa 0,0 l/m 0,0 km/h (0 Bft) O-SO 118 0 min 0,000 mm 0,0 UV-I 0 W/m 9,6 C 11,2 C 0,0 km/h (0 Bft) 0,00 %
19.09.2014 05:30 11,3 C 89 % 1012,9 hPa 0,0 l/m 0,0 km/h (0 Bft) O-SO 108 0 min 0,000 mm 0,0 UV-I 0 W/m 9,6 C 11,3 C 0,0 km/h (0 Bft) 0,00 %
19.09.2014 05:45 11,5 C 89 % 1013,0 hPa 0,0 l/m 0,0 km/h (0 Bft) O-SO 110 0 min 0,000 mm 0,0 UV-I 0 W/m 9,8 C 11,5 C 0,0 km/h (0 Bft) 0,00 %
19.09.2014 06:00 11,6 C 89 % 1013,1 hPa 0,0 l/m 0,0 km/h (0 Bft) O-SO 114 0 min 0,000 mm 0,0 UV-I 0 W/m 9,8 C 11,6 C 0,0 km/h (0 Bft) 0,00 %
19.09.2014 06:15 11,6 C 89 % 1013,0 hPa 0,0 l/m 0,0 km/h (0 Bft) O-SO 115 0 min 0,000 mm 0,0 UV-I 0 W/m 9,8 C 11,6 C 0,0 km/h (0 Bft) 0,00 %
19.09.2014 06:30 11,6 C 89 % 1013,1 hPa 0,0 l/m 0,0 km/h (0 Bft) O-SO 115 0 min 0,000 mm 0,0 UV-I 0 W/m 9,8 C 11,6 C 0,0 km/h (0 Bft) 0,00 %
19.09.2014 06:45 11,4 C 90 % 1013,7 hPa 0,0 l/m 0,0 km/h (0 Bft) SO 127 0 min 0,000 mm 1,0 UV-I 0 W/m 9,8 C 11,4 C 0,0 km/h (0 Bft) 0,00 %
19.09.2014 07:00 11,3 C 90 % 1013,6 hPa 0,0 l/m 0,0 km/h (0 Bft) SO 127 0 min 0,000 mm 1,0 UV-I 4 W/m 9,7 C 11,3 C 0,0 km/h (0 Bft) 0,00 %
19.09.2014 07:15 11,6 C 89 % 1013,5 hPa 0,0 l/m 0,0 km/h (0 Bft) SO 127 0 min 0,000 mm 1,0 UV-I 27 W/m 9,8 C 11,6 C 0,0 km/h (0 Bft) 0,00 %
19.09.2014 07:30 11,7 C 88 % 1013,8 hPa 0,0 l/m 0,0 km/h (0 Bft) O 100 0 min 0,000 mm 1,0 UV-I 46 W/m 9,8 C 11,7 C 0,0 km/h (0 Bft) 0,00 %
19.09.2014 07:45 13,6 C 82 % 1013,6 hPa 0,0 l/m 0,0 km/h (0 Bft) O 96 0 min 0,000 mm 1,0 UV-I 83 W/m 10,6 C 13,6 C 0,0 km/h (0 Bft) 0,00 %
19.09.2014 08:00 14,9 C 75 % 1013,2 hPa 0,0 l/m 0,0 km/h (0 Bft) O 101 0 min 0,000 mm 2,0 UV-I 90 W/m 10,5 C 14,9 C 0,0 km/h (0 Bft) 0,00 %
19.09.2014 08:15 15,1 C 75 % 1012,7 hPa 0,0 l/m 0,0 km/h (0 Bft) O 94 0 min 0,000 mm 2,0 UV-I 97 W/m 10,7 C 15,1 C 0,0 km/h (0 Bft) 0,00 %
19.09.2014 08:30 14,9 C 74 % 1013,0 hPa 0,0 l/m 0,0 km/h (0 Bft) SO 127 0 min 0,000 mm 2,0 UV-I 106 W/m 10,3 C 14,9 C 0,0 km/h (0 Bft) 0,00 %
19.09.2014 08:45 17,0 C 66 % 1013,4 hPa 0,0 l/m 0,0 km/h (0 Bft) W-SW 256 0 min 0,000 mm 2,0 UV-I 135 W/m 10,6 C 17,0 C 0,0 km/h (0 Bft) 0,00 %
19.09.2014 09:00 15,6 C 73 % 1013,4 hPa 0,0 l/m 0,0 km/h (0 Bft) O-NO 74 0 min 0,000 mm 2,0 UV-I 191 W/m 10,8 C 15,6 C 0,0 km/h (0 Bft) 0,00 %
19.09.2014 09:15 15,2 C 74 % 1013,0 hPa 0,0 l/m 0,0 km/h (0 Bft) O-NO 75 0 min 0,000 mm 3,0 UV-I 146 W/m 10,6 C 15,2 C 0,0 km/h (0 Bft) 0,00 %
19.09.2014 09:30 16,4 C 67 % 1013,0 hPa 0,0 l/m 2,9 km/h (1 Bft) O-SO 103 0 min 0,000 mm 3,0 UV-I 134 W/m 10,3 C 16,4 C 4,0 km/h (1 Bft) 0,00 %
19.09.2014 09:45 18,3 C 62 % 1012,8 hPa 0,0 l/m 0,0 km/h (0 Bft) N-NW 345 0 min 0,000 mm 3,0 UV-I 183 W/m 10,9 C 18,3 C 0,0 km/h (0 Bft) 0,00 %
19.09.2014 10:00 18,5 C 62 % 1012,6 hPa 0,0 l/m 0,0 km/h (0 Bft) O 93 0 min 0,000 mm 4,0 UV-I 211 W/m 11,1 C 18,5 C 0,0 km/h (0 Bft) 0,00 %
19.09.2014 10:15 19,4 C 60 % 1012,6 hPa 0,0 l/m 0,0 km/h (0 Bft) SO 134 0 min 0,000 mm 4,0 UV-I 235 W/m 11,4 C 19,4 C 0,0 km/h (0 Bft) 0,00 %
19.09.2014 10:30 19,8 C 61 % 1012,6 hPa 0,0 l/m 0,4 km/h (0 Bft) NO 45 0 min 0,000 mm 4,0 UV-I 278 W/m 12,1 C 19,8 C 4,0 km/h (1 Bft) 0,00 %
19.09.2014 10:45 19,8 C 60 % 1012,3 hPa 0,0 l/m 0,4 km/h (0 Bft) O-NO 77 0 min 0,000 mm 4,0 UV-I 306 W/m 11,8 C 19,8 C 4,0 km/h (1 Bft) 0,00 %
19.09.2014 11:00 20,6 C 56 % 1012,3 hPa 0,0 l/m 0,0 km/h (0 Bft) SW 232 15 min 0,000 mm 5,0 UV-I 341 W/m 11,5 C 20,6 C 0,0 km/h (0 Bft) 0,00 %
19.09.2014 11:15 20,9 C 59 % 1012,5 hPa 0,0 l/m 0,0 km/h (0 Bft) O 93 15 min 0,000 mm 5,0 UV-I 377 W/m 12,6 C 20,9 C 0,0 km/h (0 Bft) 0,00 %
19.09.2014 11:30 21,0 C 60 % 1012,4 hPa 0,0 l/m 0,0 km/h (0 Bft) W 279 15 min 0,000 mm 5,0 UV-I 400 W/m 12,9 C 21,0 C 0,0 km/h (0 Bft) 0,00 %
19.09.2014 11:45 21,0 C 59 % 1012,1 hPa 0,0 l/m 0,7 km/h (0 Bft) N-NW 347 15 min 0,000 mm 5,0 UV-I 448 W/m 12,7 C 21,0 C 4,0 km/h (1 Bft) 0,00 %
19.09.2014 12:00 20,9 C 59 % 1012,0 hPa 0,0 l/m 1,4 km/h (1 Bft) NW 316 15 min 0,000 mm 5,0 UV-I 489 W/m 12,6 C 20,9 C 4,0 km/h (1 Bft) 0,00 %
19.09.2014 12:15 21,3 C 56 % 1012,0 hPa 0,0 l/m 0,4 km/h (0 Bft) NO 44 15 min 0,000 mm 5,0 UV-I 535 W/m 12,2 C 21,3 C 4,0 km/h (1 Bft) 0,00 %
19.09.2014 12:30 21,4 C 57 % 1011,9 hPa 0,0 l/m 0,0 km/h (0 Bft) S 181 15 min 0,000 mm 4,0 UV-I 566 W/m 12,5 C 21,4 C 0,0 km/h (0 Bft) 0,00 %
19.09.2014 12:45 21,4 C 54 % 1011,7 hPa 0,0 l/m 0,0 km/h (0 Bft) S 191 15 min 0,000 mm 4,0 UV-I 531 W/m 11,7 C 21,4 C 0,0 km/h (0 Bft) 0,00 %
19.09.2014 13:00 21,5 C 56 % 1011,4 hPa 0,0 l/m 2,2 km/h (1 Bft) N 9 0 min 0,000 mm 4,0 UV-I 192 W/m 12,3 C 21,5 C 7,9 km/h (2 Bft) 0,00 %
19.09.2014 13:15 21,4 C 58 % 1011,9 hPa 0,0 l/m 0,7 km/h (0 Bft) W-NW 286 15 min 0,000 mm 4,0 UV-I 415 W/m 12,8 C 21,4 C 4,0 km/h (1 Bft) 0,00 %
19.09.2014 13:30 21,6 C 58 % 1011,6 hPa 0,0 l/m 3,2 km/h (1 Bft) O 85 15 min 0,000 mm 3,0 UV-I 466 W/m 13,0 C 21,6 C 4,0 km/h (1 Bft) 0,00 %
19.09.2014 13:45 21,8 C 57 % 1011,5 hPa 0,0 l/m 1,4 km/h (1 Bft) N 349 0 min 0,000 mm 3,0 UV-I 357 W/m 12,9 C 21,8 C 4,0 km/h (1 Bft) 0,00 %
19.09.2014 14:00 22,2 C 54 % 1011,2 hPa 0,0 l/m 5,4 km/h (1 Bft) O 96 15 min 0,000 mm 2,0 UV-I 462 W/m 12,4 C 22,2 C 7,9 km/h (2 Bft) 0,00 %
19.09.2014 14:15 22,6 C 56 % 1010,7 hPa 0,0 l/m 1,8 km/h (1 Bft) NO 51 0 min 0,000 mm 2,0 UV-I 307 W/m 13,4 C 22,6 C 7,9 km/h (2 Bft) 0,00 %
19.09.2014 14:30 22,6 C 55 % 1010,2 hPa 0,0 l/m 0,7 km/h (0 Bft) SW 219 0 min 0,000 mm 2,0 UV-I 213 W/m 13,1 C 22,6 C 4,0 km/h (1 Bft) 0,00 %
19.09.2014 14:45 22,6 C 53 % 1010,1 hPa 0,0 l/m 7,9 km/h (2 Bft) N 353 15 min 0,000 mm 2,0 UV-I 500 W/m 12,5 C 22,1 C 11,9 km/h (2 Bft) 0,00 %
19.09.2014 15:00 22,5 C 56 % 1010,2 hPa 0,0 l/m 4,0 km/h (1 Bft) O-SO 103 15 min 0,000 mm 2,0 UV-I 610 W/m 13,3 C 22,5 C 7,9 km/h (2 Bft) 0,00 %
19.09.2014 15:15 22,6 C 56 % 1010,1 hPa 0,0 l/m 4,7 km/h (1 Bft) O-SO 110 15 min 0,000 mm 2,0 UV-I 615 W/m 13,4 C 22,6 C 7,9 km/h (2 Bft) 0,00 %
19.09.2014 15:30 23,0 C 55 % 1010,3 hPa 0,0 l/m 0,0 km/h (0 Bft) O-SO 116 15 min 0,000 mm 2,0 UV-I 610 W/m 13,5 C 23,0 C 0,0 km/h (0 Bft) 0,00 %
19.09.2014 15:45 22,9 C 55 % 1010,1 hPa 0,0 l/m 0,4 km/h (0 Bft) NW 325 15 min 0,000 mm 2,0 UV-I 600 W/m 13,4 C 22,9 C 4,0 km/h (1 Bft) 0,00 %
19.09.2014 16:00 23,0 C 54 % 1010,2 hPa 0,0 l/m 6,8 km/h (2 Bft) O 89 15 min 0,000 mm 2,0 UV-I 620 W/m 13,2 C 22,9 C 7,9 km/h (2 Bft) 0,00 %
19.09.2014 16:15 23,0 C 54 % 1010,0 hPa 0,0 l/m 0,0 km/h (0 Bft) N-NW 347 15 min 0,000 mm 1,0 UV-I 600 W/m 13,2 C 23,0 C 0,0 km/h (0 Bft) 0,00 %
19.09.2014 16:30 23,1 C 54 % 1009,6 hPa 0,0 l/m 1,8 km/h (1 Bft) O-SO 103 15 min 0,000 mm 1,0 UV-I 580 W/m 13,3 C 23,1 C 4,0 km/h (1 Bft) 0,00 %
19.09.2014 16:45 23,3 C 53 % 1009,4 hPa 0,0 l/m 1,4 km/h (1 Bft) NW 307 15 min 0,000 mm 1,0 UV-I 570 W/m 13,2 C 23,3 C 4,0 km/h (1 Bft) 0,00 %
19.09.2014 17:00 23,6 C 53 % 1009,4 hPa 0,0 l/m 0,7 km/h (0 Bft) W-NW 293 15 min 0,000 mm 1,0 UV-I 532 W/m 13,4 C 23,6 C 4,0 km/h (1 Bft) 0,00 %
19.09.2014 17:15 23,7 C 52 % 1009,4 hPa 0,0 l/m 3,2 km/h (1 Bft) O-SO 119 15 min 0,000 mm 1,0 UV-I 568 W/m 13,2 C 23,7 C 7,9 km/h (2 Bft) 0,00 %
19.09.2014 17:30 23,4 C 55 % 1009,7 hPa 0,0 l/m 2,9 km/h (1 Bft) NO 48 15 min 0,000 mm 1,0 UV-I 507 W/m 13,8 C 23,4 C 4,0 km/h (1 Bft) 0,00 %
19.09.2014 17:45 22,7 C 58 % 1009,7 hPa 0,0 l/m 0,0 km/h (0 Bft) SW 236 15 min 0,000 mm 0,0 UV-I 340 W/m 14,0 C 22,7 C 0,0 km/h (0 Bft) 0,00 %
19.09.2014 18:00 22,0 C 60 % 1010,1 hPa 0,0 l/m 1,4 km/h (1 Bft) S 185 0 min 0,000 mm 0,0 UV-I 99 W/m 13,9 C 22,0 C 4,0 km/h (1 Bft) 0,00 %
19.09.2014 18:15 21,2 C 62 % 1009,9 hPa 0,0 l/m 1,8 km/h (1 Bft) SO 139 15 min 0,000 mm 0,0 UV-I 181 W/m 13,6 C 21,2 C 4,0 km/h (1 Bft) 0,00 %
19.09.2014 18:30 20,7 C 63 % 1010,2 hPa 0,0 l/m 1,4 km/h (1 Bft) S-SO 153 15 min 0,000 mm 0,0 UV-I 99 W/m 13,4 C 20,7 C 4,0 km/h (1 Bft) 0,00 %
19.09.2014 18:45 19,9 C 66 % 1010,4 hPa 0,0 l/m 0,0 km/h (0 Bft) SO 136 0 min 0,000 mm 0,0 UV-I 28 W/m 13,4 C 19,9 C 0,0 km/h (0 Bft) 0,00 %
19.09.2014 19:00 19,2 C 68 % 1010,7 hPa 0,0 l/m 0,0 km/h (0 Bft) S-SO 154 0 min 0,000 mm 0,0 UV-I 1 W/m 13,1 C 19,2 C 0,0 km/h (0 Bft) 0,00 %
19.09.2014 19:15 18,6 C 71 % 1011,0 hPa 0,0 l/m 0,0 km/h (0 Bft) O-SO 123 0 min 0,000 mm 0,0 UV-I 0 W/m 13,2 C 18,6 C 0,0 km/h (0 Bft) 0,00 %
19.09.2014 19:30 18,1 C 72 % 1011,4 hPa 0,0 l/m 0,0 km/h (0 Bft) S-SW 207 0 min 0,000 mm 0,0 UV-I 0 W/m 13,0 C 18,1 C 0,0 km/h (0 Bft) 0,00 %
19.09.2014 19:45 17,5 C 73 % 1011,5 hPa 0,0 l/m 0,0 km/h (0 Bft) O-SO 111 0 min 0,000 mm 0,0 UV-I 0 W/m 12,6 C 17,5 C 0,0 km/h (0 Bft) 0,00 %
19.09.2014 20:00 17,5 C 75 % 1011,4 hPa 0,0 l/m 0,0 km/h (0 Bft) S 180 0 min 0,000 mm 0,0 UV-I 0 W/m 13,0 C 17,5 C 0,0 km/h (0 Bft) 0,00 %
19.09.2014 20:15 17,3 C 78 % 1011,4 hPa 0,0 l/m 0,0 km/h (0 Bft) S 171 0 min 0,000 mm 0,0 UV-I 0 W/m 13,4 C 17,3 C 0,0 km/h (0 Bft) 0,00 %
19.09.2014 20:30 17,1 C 79 % 1011,8 hPa 0,0 l/m 0,0 km/h (0 Bft) S 177 0 min 0,000 mm 0,0 UV-I 0 W/m 13,4 C 17,1 C 0,0 km/h (0 Bft) 0,00 %
19.09.2014 20:45 16,9 C 79 % 1011,6 hPa 0,0 l/m 1,4 km/h (1 Bft) O-NO 57 0 min 0,000 mm 0,0 UV-I 0 W/m 13,2 C 16,9 C 4,0 km/h (1 Bft) 0,00 %
19.09.2014 21:00 16,7 C 80 % 1011,8 hPa 0,0 l/m 0,0 km/h (0 Bft) O-SO 111 0 min 0,000 mm 0,0 UV-I 0 W/m 13,2 C 16,7 C 0,0 km/h (0 Bft) 0,00 %
19.09.2014 21:15 16,5 C 81 % 1011,9 hPa 0,0 l/m 0,0 km/h (0 Bft) S 179 0 min 0,000 mm 0,0 UV-I 0 W/m 13,2 C 16,5 C 0,0 km/h (0 Bft) 0,00 %
19.09.2014 21:30 16,6 C 81 % 1011,7 hPa 0,0 l/m 2,2 km/h (1 Bft) O 100 0 min 0,000 mm 0,0 UV-I 0 W/m 13,3 C 16,6 C 4,0 km/h (1 Bft) 0,00 %
19.09.2014 21:45 16,5 C 84 % 1012,2 hPa 0,0 l/m 0,0 km/h (0 Bft) W-SW 252 0 min 0,000 mm 0,0 UV-I 0 W/m 13,8 C 16,5 C 0,0 km/h (0 Bft) 0,00 %
19.09.2014 22:00 16,2 C 85 % 1011,9 hPa 0,0 l/m 0,0 km/h (0 Bft) SO 129 0 min 0,000 mm 0,0 UV-I 0 W/m 13,7 C 16,2 C 0,0 km/h (0 Bft) 0,00 %
19.09.2014 22:15 16,1 C 86 % 1011,9 hPa 0,0 l/m 0,7 km/h (0 Bft) N-NO 15 0 min 0,000 mm 0,0 UV-I 0 W/m 13,8 C 16,1 C 4,0 km/h (1 Bft) 0,00 %
19.09.2014 22:30 16,1 C 86 % 1012,8 hPa 0,0 l/m 0,0 km/h (0 Bft) S 190 0 min 0,000 mm 0,0 UV-I 0 W/m 13,8 C 16,1 C 0,0 km/h (0 Bft) 0,00 %
19.09.2014 22:45 16,0 C 87 % 1013,4 hPa 0,0 l/m 0,0 km/h (0 Bft) W-SW 256 0 min 0,000 mm 0,0 UV-I 0 W/m 13,8 C 16,0 C 0,0 km/h (0 Bft) 0,00 %
19.09.2014 23:00 16,0 C 87 % 1013,8 hPa 0,3 l/m 0,0 km/h (0 Bft) S-SW 208 0 min 0,000 mm 0,0 UV-I 0 W/m 13,8 C 16,0 C 0,0 km/h (0 Bft) 0,00 %
19.09.2014 23:15 16,0 C 88 % 1014,0 hPa 0,3 l/m 0,0 km/h (0 Bft) SW 219 0 min 0,000 mm 0,0 UV-I 0 W/m 14,0 C 16,0 C 0,0 km/h (0 Bft) 0,00 %
19.09.2014 23:30 15,9 C 89 % 1013,9 hPa 0,6 l/m 0,0 km/h (0 Bft) S 175 0 min 0,000 mm 0,0 UV-I 0 W/m 14,1 C 15,9 C 0,0 km/h (0 Bft) 0,00 %
19.09.2014 23:45 15,9 C 89 % 1014,5 hPa 1,5 l/m 0,0 km/h (0 Bft) W-SW 256 0 min 0,000 mm 0,0 UV-I 0 W/m 14,1 C 15,9 C 0,0 km/h (0 Bft) 0,00 %
_ Min-Zeit 04:00 17:15 16:45 - 00:00 - - - - - - 04:00 04:00 00:00 00:00
Minimum _ 10,7 C 52 % 1009,4 hPa - 0,0 km/h (0 Bft) - - - - - - 9,1 C 10,7 C 0,0 km/h (0 Bft) 0,00 %
_ Max-Zeit 17:15 04:15 23:45 23:45 14:45 - - 11:00 00:00 11:00 16:00 23:30 17:15 14:45 00:00
Maximum _ 23,7 C 91 % 1014,5 hPa 1,5 l/m 7,9 km/h
N (2 Bft)
- - 15 min 0,000 mm 5,0 UV-I 620 W/m 14,1 C 23,7 C 11,9 km/h
N (2 Bft)
0,00 %
Durchschnitt _ 16,9 C 73 % 1012,0 hPa #2,7 l/m 0,7 km/h (0 Bft) O-SO - #6:30 h #0,000 mm 2,6 UV-I 327 W/m 11,8 C 16,9 C 1,6 km/h (1 Bft) 0,00 %